Tiempo atmosférico en la estación meteorológica de Arganda Del Rey, Madrid (533 m.)



Fecha
DESCASC
Temp. máxima en grados centígrados (hora)
DESCASC
Temp. mínima en grados centígrados (hora)
DESCASC
Temp. media en grados centígrados
DESCASC
Racha de viento máxima en m/sg (hora)
DESCASC
Velocidad máxima media en intervalos de 10 minutos(hora)
DESCASC
Precipitaciones diarias en mm
DESCASC
Precipitaciones de 00:00 a 06:00 en mm
DESCASC
Precipitaciones de 06:00 a 12:00 en mm
DESCASC
Precipitaciones de 12:00 a 18:00 en mm
DESCASC
Precipitaciones de 18:00 a 24:00 en mm
DESCASC
28-05-2020 31.2 (18:50) 14.1 (07:00) 22.7 8.61 (14:00) 4.72 (19:00) 0 0 0 0 0
27-05-2020 31.8 (16:50) 14.6 (06:30) 23.2 8.89 (13:20) 6.11 (20:20) 0 0 0 0 0
26-05-2020 28.6 (18:20) 15.2 (06:50) 21.9 8.33 (13:40) 5.83 (13:40) 0.2 0 0.2 0 0
25-05-2020 31.6 (17:10) 16.9 (07:10) 24.3 12.5 (18:00) 6.39 (18:20) 4.4 0 0 0 4.4
24-05-2020 33.3 (18:40) 16.1 (00:00) 24.7 10.83 (01:00) 6.11 (00:40) 0 0 0 0 0
23-05-2020 35 (18:50) 14.4 (00:00) 24.7 9.17 (23:59) 5.28 (23:30) 0 0 0 0 0
22-05-2020 33.7 (18:50) 13.5 (00:00) 23.6 7.78 (15:10) 4.44 (15:10) 0 0 0 0 0
21-05-2020 32.6 (18:00) 11.8 (00:00) 22.2 6.67 (17:30) 3.61 (17:40) 0 0 0 0 0
20-05-2020 32.2 (18:50) 12.2 (00:00) 22.2 6.67 (18:10) 4.17 (19:40) 0 0 0 0 0
19-05-2020 31.1 (18:50) 11 (00:00) 21.1 10 (00:10) 5.56 (00:10) 0 0 0 0 0
18-05-2020 29.2 (20:20) 9.1 (00:00) 19.2 7.78 (23:59) 4.72 (23:59) 0 0 0 0 0
17-05-2020 24.9 (19:40) 8.7 (00:00) 16.8 8.33 (09:40) 4.72 (10:10) 0.2 0.2 0 0 0
16-05-2020 20.5 (15:30) 11.5 (00:00) 16 7.5 (23:59) 4.44 (15:50) 0.2 0.2 0 0 0
15-05-2020 19.9 (13:40) 9.7 (00:00) 14.8 7.78 (16:50) 4.44 (16:40) 8.4 0 0 5.4 3
14-05-2020 15.5 (18:00) 10.2 (00:00) 12.8 9.72 (06:40) 5 (06:30) 8.8 0 8.4 0.4 0
13-05-2020 20.1 (18:00) 10.2 (00:00) 15.2 7.22 (00:20) 4.72 (11:10) 0.2 0 0.2 0 0
12-05-2020 16.4 (13:00) 10.2 (00:00) 13.3 8.89 (22:40) 5.28 (13:50) 6.6 0 0 0.8 5.8
11-05-2020 20.4 (15:00) 11.2 (00:00) 15.8 12.5 (16:20) 7.22 (16:20) 0 0 0 0 0
10-05-2020 20.3 (15:20) 10.3 (00:00) 15.3 13.06 (15:50) 8.89 (16:20) 0.6 0.2 0.2 0.2 0
09-05-2020 24.7 (17:00) 13.1 (00:00) 18.9 9.17 (22:50) 5.56 (22:50) 0 0 0 0 0
08-05-2020 29.8 (17:50) 12.8 (00:00) 21.3 10.56 (00:10) 6.11 (00:10) 0 0 0 0 0
07-05-2020 28.2 (16:00) 10.2 (00:00) 19.2 12.5 (23:00) 6.94 (13:30) 0 0 0 0 0
06-05-2020 27.7 (19:50) 7.3 (00:00) 17.5 5.28 (15:40) 2.78 (17:10) 0 0 0 0 0
05-05-2020 25.9 (18:00) 11.8 (00:00) 18.8 7.78 (17:20) 4.72 (20:00) 0 0 0 0 0
04-05-2020 31.8 (16:50) 11.5 (00:00) 21.6 15 (17:10) 9.17 (17:30) 0 0 0 0 0
03-05-2020 31.4 (19:00) 10 (00:00) 20.7 4.72 (15:20) 3.33 (15:20) 0 0 0 0 0
02-05-2020 27.1 (17:10) 10.4 (00:00) 18.8 10 (17:40) 6.67 (16:50) 0 0 0 0 0

Gráficas

Temp. máximas Temp. mínimas Temp. medias Precipitaciones Rachas de viento máximas Velocidades máximas media en intervalos de 10 minutos

Datos horarios

Fecha y hora oficial Temperatura (ºC) Velocidad del viento (km/h) Dirección del viento Racha (km/h) Dirección de racha Precipitación (mm) Presión (hPa) Tendencia (hPa) Humedad (%)
2020-05-31 23:00:00 17.5 18 Norte 30 Norte 0.4 -- -- 81
2020-05-31 22:00:00 17.9 13 Nordeste 24 Este 2.2 -- -- 81
2020-05-31 21:00:00 19.5 9 Nordeste 19 Nordeste 0 -- -- 70
2020-05-31 20:00:00 19.1 13 Nordeste 39 Noroeste 0.4 -- -- 70
2020-05-31 19:00:00 21.6 22 Oeste 53 Sudeste 0.6 -- -- 64
2020-05-31 18:00:00 30.3 13 Noroeste 33 Noroeste 0 -- -- 31
2020-05-31 17:00:00 32 10 Oeste 21 Oeste 0 -- -- 27
2020-05-31 16:00:00 32.9 9 Sudoeste 21 Oeste 0 -- -- 26
2020-05-31 15:00:00 31.6 7 Oeste 16 Sudoeste 0 -- -- 29
2020-05-31 14:00:00 29.7 9 Sur 21 Sudeste 0 -- -- 32
2020-05-31 13:00:00 28 6 Sudeste 15 Sur 0 -- -- 35
2020-05-31 12:00:00 27 8 Sudeste 14 Este 0 -- -- 37
2020-05-31 11:00:00 24.9 5 Nordeste 12 Este 0 -- -- 39
2020-05-31 10:00:00 23.4 8 Sudeste 15 Sudeste 0 -- -- 43
2020-05-31 09:00:00 21.7 5 Este 11 Este 0 -- -- 48
2020-05-31 08:00:00 19.2 5 Nordeste 10 Este 0 -- -- 56
2020-05-31 07:00:00 17.7 3 Nordeste 10 Nordeste 0 -- -- 58
2020-05-31 06:00:00 18.6 6 Nordeste 12 Este 0 -- -- 54
2020-05-31 05:00:00 19.4 6 Nordeste 13 Este 0 -- -- 51
2020-05-31 04:00:00 20.5 8 Este 17 Este 0 -- -- 47
2020-05-31 03:00:00 21.1 12 Este 18 Este 0 -- -- 46
2020-05-31 02:00:00 22.2 9 Sudeste 13 Sur 0 -- -- 39
2020-05-31 01:00:00 22 5 Norte 12 Sudeste 0 -- -- 41
2020-05-31 00:00:00 23.1 7 Este 18 Sudeste 0 -- -- 43
2020-05-30 23:00:00 22.4 5 Sur 17 Oeste 0 -- -- 52
2020-05-30 22:00:00 25.5 3 Nordeste 6 Nordeste 0 -- -- 41
2020-05-30 21:00:00 30 3 Sudeste 6 Sudeste 0 -- -- 31
2020-05-30 20:00:00 32.3 3 Sudeste 14 Sudoeste 0 -- -- 23
2020-05-30 19:00:00 33.8 4 Sur 17 Sur 0 -- -- 21
2020-05-30 18:00:00 33.3 14 Sudoeste 22 Sudoeste 0 -- -- 22
2020-05-30 17:00:00 32.4 8 Oeste 21 Oeste 0 -- -- 24
2020-05-30 16:00:00 33 7 Sur 20 Oeste 0 -- -- 24
2020-05-30 15:00:00 31.1 6 Sudoeste 21 Oeste 0 -- -- 29
2020-05-30 14:00:00 29.9 8 Oeste 17 Este 0 -- -- 30
2020-05-30 13:00:00 28.5 10 Sudeste 17 Sudeste 0 -- -- 32
2020-05-30 12:00:00 26.6 8 Sudeste 16 Este 0 -- -- 36
2020-05-30 11:00:00 25 9 Este 16 Este 0 -- -- 38
2020-05-30 10:00:00 22.9 6 Este 17 Este 0 -- -- 42
2020-05-30 09:00:00 20.4 8 Nordeste 14 Nordeste 0 -- -- 48
2020-05-30 08:00:00 18.1 3 Nordeste 8 Nordeste 0 -- -- 57
2020-05-30 07:00:00 16.4 4 Norte 8 Nordeste 0 -- -- 58
2020-05-30 06:00:00 18.1 6 Sudeste 14 Sudeste 0 -- -- 52
2020-05-30 05:00:00 18.5 3 Noroeste 24 Sudeste 0 -- -- 51
2020-05-30 04:00:00 19 8 Sudeste 19 Sudeste 0 -- -- 49
2020-05-30 03:00:00 18.5 5 Nordeste 18 Este 0 -- -- 54
2020-05-30 02:00:00 18.2 7 Nordeste 17 Este 0 -- -- 55
2020-05-30 01:00:00 18.4 3 Nordeste 4 Nordeste 0 -- -- 59
2020-05-30 00:00:00 20.4 0 Calma 4 Este 0 -- -- 52
2020-05-29 23:00:00 22.3 0 Calma 5 Nordeste 0 -- -- 48
2020-05-29 22:00:00 25.3 0 Calma 5 Sudeste 0 -- -- 40
2020-05-29 21:00:00 30.1 0 Calma 11 Nordeste 0 -- -- 29
2020-05-29 20:00:00 31.6 7 Nordeste 13 Este 0 -- -- 24
2020-05-29 19:00:00 32.4 8 Nordeste 16 Norte 0 -- -- 22
2020-05-29 18:00:00 31.8 10 Nordeste 27 Este 0 -- -- 23
2020-05-29 17:00:00 31.7 6 Nordeste 19 Norte 0 -- -- 21
2020-05-29 16:00:00 30.9 6 Noroeste 22 Norte 0 -- -- 28
2020-05-29 15:00:00 29.7 7 Norte 21 Norte 0 -- -- 31
2020-05-29 14:00:00 28.7 5 Norte 15 Este 0 -- -- 35
2020-05-29 13:00:00 27.1 4 Norte 16 Este 0 -- -- 38
2020-05-29 12:00:00 25.4 5 Norte 19 Sur 0 -- -- 39
2020-05-29 11:00:00 23.8 4 Norte 18 Nordeste 0 -- -- 43
2020-05-29 10:00:00 21.6 4 Norte 9 Nordeste 0 -- -- 48
2020-05-29 09:00:00 18.9 0 Calma 7 Nordeste 0 -- -- 56
2020-05-29 08:00:00 15.9 5 Nordeste 10 Este 0 -- -- 64
2020-05-29 07:00:00 14.3 6 Nordeste 10 Nordeste 0 -- -- 67
2020-05-29 06:00:00 15.2 4 Nordeste 9 Norte 0 -- -- 65
2020-05-29 05:00:00 16.9 5 Nordeste 16 Este 0 -- -- 57
2020-05-29 04:00:00 17 3 Este 9 Nordeste 0 -- -- 58
2020-05-29 03:00:00 18.3 6 Sudeste 18 Sudeste 0 -- -- 54
2020-05-29 02:00:00 19.1 6 Este 12 Este 0 -- -- 56
2020-05-29 01:00:00 19.6 4 Norte 9 Nordeste 0 -- -- 55
2020-05-29 00:00:00 21 2 Norte 9 Noroeste 0 -- -- 49
2020-05-28 23:00:00 21.6 3 Noroeste 9 Este 0 -- -- 46
2020-05-28 22:00:00 23.8 4 Sudeste 14 Sudeste 0 -- -- 40
2020-05-28 21:00:00 27.2 11 Sudeste 23 Sudeste 0 -- -- 32
2020-05-28 20:00:00 29.7 14 Sudeste 26 Sudeste 0 -- -- 29
2020-05-28 19:00:00 30.8 17 Sudeste 26 Sudeste 0 -- -- 28
2020-05-28 18:00:00 30.7 9 Sur 21 Sudeste 0 -- -- 28
2020-05-28 17:00:00 30.4 5 Noroeste 21 Este 0 -- -- 28
2020-05-28 16:00:00 29.3 12 Este 24 Este 0 -- -- 30
2020-05-28 15:00:00 28.5 6 Sur 24 Sudeste 0 -- -- 32
2020-05-28 14:00:00 27.2 11 Este 31 Este 0 -- -- 33
2020-05-28 13:00:00 26.4 7 Este 21 Este 0 -- -- 36
2020-05-28 12:00:00 24.6 9 Sudeste 26 Este 0 -- -- 40
2020-05-28 11:00:00 23.1 10 Este 21 Este 0 -- -- 42
2020-05-28 10:00:00 21.3 13 Nordeste 21 Norte 0 -- -- 45
2020-05-28 09:00:00 19 9 Nordeste 17 Nordeste 0 -- -- 53
2020-05-28 08:00:00 15.9 6 Nordeste 12 Nordeste 0 -- -- 62
2020-05-28 07:00:00 14.1 6 Nordeste 12 Nordeste 0 -- -- 67
2020-05-28 06:00:00 15.1 4 Nordeste 9 Nordeste 0 -- -- 66
2020-05-28 05:00:00 15.7 5 Nordeste 11 Nordeste 0 -- -- 65
2020-05-28 04:00:00 17.1 4 Este 21 Sudeste 0 -- -- 59
2020-05-28 03:00:00 17.8 6 Sudeste 15 Sudeste 0 -- -- 60
2020-05-28 02:00:00 18.8 3 Sur 14 Este 0 -- -- 59
2020-05-28 01:00:00 19.7 5 Sur 14 Sudeste 0 -- -- 55
2020-05-28 00:00:00 20.7 5 Sur 17 Sur 0 -- -- 51
2020-05-27 23:00:00 21.6 3 Sudoeste 10 Sudeste 0 -- -- 48
2020-05-27 22:00:00 23.8 3 Este 24 Sudeste 0 -- -- 42
2020-05-27 21:00:00 26.4 20 Sudeste 32 Sudeste 0 -- -- 37
2020-05-27 20:00:00 28.7 17 Sudeste 32 Sudeste 0 -- -- 35
2020-05-27 19:00:00 29.5 16 Sudeste 27 Sudeste 0 -- -- 33
2020-05-27 18:00:00 31.3 19 Este 32 Este 0 -- -- 30
2020-05-27 17:00:00 31.2 8 Este 29 Este 0 -- -- 29
2020-05-27 16:00:00 30.8 14 Sudeste 29 Este 0 -- -- 30
2020-05-27 15:00:00 30 17 Este 31 Este 0 -- -- 30
2020-05-27 14:00:00 28.6 17 Este 32 Este 0 -- -- 33
2020-05-27 13:00:00 27.3 18 Este 31 Este 0 -- -- 35
2020-05-27 12:00:00 25.9 14 Este 30 Este 0 -- -- 41
2020-05-27 11:00:00 24.3 14 Sudeste 29 Sudeste 0 -- -- 43
2020-05-27 10:00:00 22.5 13 Nordeste 23 Nordeste 0 -- -- 48
2020-05-27 09:00:00 19.9 7 Nordeste 15 Nordeste 0 -- -- 57
2020-05-27 08:00:00 16.5 5 Nordeste 10 Nordeste 0 -- -- 84
2020-05-27 07:00:00 14.9 4 Nordeste 8 Este 0 -- -- 85
2020-05-27 06:00:00 15.2 2 Este 6 Nordeste 0 -- -- 80
2020-05-27 05:00:00 16.5 4 Nordeste 9 Nordeste 0 -- -- 80
2020-05-27 04:00:00 17.7 2 Este 12 Norte 0 -- -- 72
2020-05-27 03:00:00 19.2 6 Nordeste 19 Este 0 -- -- 58
2020-05-27 02:00:00 19 11 Nordeste 19 Este 0 -- -- 57
2020-05-27 01:00:00 19.4 4 Este 12 Nordeste 0 -- -- 60
2020-05-27 00:00:00 20.8 10 Nordeste 18 Nordeste 0 -- -- 62
2020-05-26 23:00:00 21.2 5 Norte 11 Nordeste 0 -- -- 67
2020-05-26 22:00:00 23.2 5 Nordeste 10 Nordeste 0 -- -- 60
2020-05-26 21:00:00 27.2 3 Norte 25 Nordeste 0 -- -- 46
2020-05-26 20:00:00 27.5 10 Nordeste 24 Norte 0 -- -- 42
2020-05-26 19:00:00 28.3 11 Norte 24 Norte 0 -- -- 49
2020-05-26 18:00:00 28 14 Norte 26 Norte 0 -- -- 48
2020-05-26 17:00:00 25.9 4 Noroeste 9 Norte 0 -- -- 47
2020-05-26 16:00:00 23 5 Sur 10 Sur 0 -- -- 61
2020-05-26 15:00:00 22 11 Sudoeste 21 Sudoeste 0 -- -- 63
2020-05-26 14:00:00 21.9 17 Sudoeste 30 Sudoeste 0 -- -- 63
2020-05-26 13:00:00 24.7 12 Sudeste 24 Sudeste 0 -- -- 54
2020-05-26 12:00:00 22.4 9 Sudeste 19 Este 0 -- -- 65
2020-05-26 11:00:00 20 5 Noroeste 9 Oeste 0 -- -- 77
2020-05-26 10:00:00 18.9 4 Nordeste 8 Norte 0.2 -- -- 80
2020-05-26 09:00:00 17.9 4 Nordeste 15 Nordeste 0 -- -- 82
2020-05-26 08:00:00 17.5 5 Nordeste 14 Nordeste 0 -- -- 85
2020-05-26 07:00:00 15.2 0 Calma 9 Este 0 -- -- 89
2020-05-26 06:00:00 15.4 3 Nordeste 8 Nordeste 0 -- -- 88
2020-05-26 05:00:00 15.6 3 Nordeste 14 Norte 0 -- -- 85
2020-05-26 04:00:00 16 5 Norte 11 Norte 0 -- -- 82
2020-05-26 03:00:00 16.9 5 Nordeste 21 Nordeste 0 -- -- 79
2020-05-26 02:00:00 17.2 14 Norte 22 Norte 0 -- -- 77
2020-05-26 01:00:00 17.6 12 Norte 19 Norte 0 -- -- 74
2020-05-26 00:00:00 18.7 9 Nordeste 24 Norte 0.2 -- -- 68
2020-05-25 23:00:00 19.1 11 Este 26 Este 0 -- -- 69
2020-05-25 22:00:00 19.5 14 Nordeste 31 Nordeste 0 -- -- 74
2020-05-25 21:00:00 22 5 Nordeste 18 Este 0 -- -- 70
2020-05-25 20:00:00 21.3 14 Sudeste 31 Este 0.4 -- -- 75
2020-05-25 19:00:00 20.5 6 Sur 39 Este 3.8 -- -- 76
2020-05-25 18:00:00 23.4 22 Nordeste 45 Nordeste 0 -- -- 66
2020-05-25 17:00:00 31.5 14 Sudeste 28 Sudeste 0 -- -- 37
2020-05-25 16:00:00 30.6 21 Sudeste 35 Sudeste 0 -- -- 42
2020-05-25 15:00:00 29.4 20 Sudeste 30 Sudeste 0 -- -- 45
2020-05-25 14:00:00 28.7 13 Sudeste 23 Sudeste 0 -- -- 45
2020-05-25 13:00:00 28.2 12 Sudeste 19 Este 0 -- -- 45
2020-05-25 12:00:00 26.2 9 Sudeste 21 Sudeste 0 -- -- 50
2020-05-25 11:00:00 24.8 5 Sur 18 Sudeste 0 -- -- 52
2020-05-25 10:00:00 23.3 5 Este 10 Nordeste 0 -- -- 60
2020-05-25 09:00:00 21.5 5 Norte 10 Norte 0 -- -- 67
2020-05-25 08:00:00 18.2 0 Calma 6 Norte 0 -- -- 80
2020-05-25 07:00:00 17 0 Calma 6 Este 0 -- -- 80
2020-05-25 06:00:00 17.3 3 Sudeste 6 Sudeste 0 -- -- 79
2020-05-25 05:00:00 18.4 3 Nordeste 9 Este 0 -- -- 74
2020-05-25 04:00:00 19.2 6 Nordeste 12 Este 0 -- -- 72
2020-05-25 03:00:00 20.5 3 Este 14 Este 0 -- -- 67
2020-05-25 02:00:00 21.6 5 Este 19 Sudeste 0 -- -- 63
2020-05-25 01:00:00 22.4 4 Este 13 Sudeste 0 -- -- 53
2020-05-25 00:00:00 22.6 4 Noroeste 19 Sudeste 0 -- -- 50
2020-05-24 23:00:00 24.5 9 Sudeste 30 Sudeste 0 -- -- 46
2020-05-24 22:00:00 25 0 Calma 5 Nordeste 0 -- -- 54
2020-05-24 21:00:00 27.6 3 Sudoeste 8 Oeste 0 -- -- 47
2020-05-24 20:00:00 30.4 5 Norte 10 Norte 0 -- -- 38
2020-05-24 19:00:00 32.9 4 Oeste 13 Norte 0 -- -- 31
2020-05-24 18:00:00 32.9 6 Noroeste 12 Oeste 0 -- -- 33
2020-05-24 17:00:00 30.6 5 Oeste 19 Oeste 0 -- -- 35
2020-05-24 16:00:00 30.9 10 Oeste 18 Oeste 0 -- -- 36
2020-05-24 15:00:00 30.2 7 Sudeste 18 Sudoeste 0 -- -- 38
2020-05-24 14:00:00 28.4 7 Sudoeste 20 Sudeste 0 -- -- 39
2020-05-24 13:00:00 27 9 Este 22 Este 0 -- -- 45
2020-05-24 12:00:00 25.9 11 Sudeste 27 Sudeste 0 -- -- 45
2020-05-24 11:00:00 24.5 11 Sudeste 18 Este 0 -- -- 45
2020-05-24 10:00:00 22.3 5 Este 14 Este 0 -- -- 54
2020-05-24 09:00:00 19.8 3 Nordeste 9 Nordeste 0 -- -- 62
2020-05-24 08:00:00 17.6 2 Este 14 Nordeste 0 -- -- 69
2020-05-24 07:00:00 16.1 5 Nordeste 17 Norte 0 -- -- 73
2020-05-24 06:00:00 16.9 8 Nordeste 15 Nordeste 0 -- -- 71
2020-05-24 05:00:00 17.5 4 Nordeste 15 Norte 0 -- -- 69
2020-05-24 04:00:00 18.2 6 Nordeste 20 Nordeste 0 -- -- 69
2020-05-24 03:00:00 19.2 12 Nordeste 26 Nordeste 0 -- -- 66
2020-05-24 02:00:00 20.4 17 Nordeste 34 Norte 0 -- -- 63
2020-05-24 01:00:00 22.3 19 Nordeste 39 Nordeste 0 -- -- 60
2020-05-24 00:00:00 24.5 17 Norte 33 Norte 0 -- -- 57
2020-05-23 23:00:00 26.4 14 Norte 25 Norte 0 -- -- 50
2020-05-23 22:00:00 26 7 Norte 19 Norte 0 -- -- 46
2020-05-23 21:00:00 31.4 0 Calma 6 Sudoeste 0 -- -- 35
2020-05-23 20:00:00 33.8 4 Sudeste 15 Oeste 0 -- -- 26
2020-05-23 19:00:00 34.3 7 Oeste 21 Oeste 0 -- -- 23
2020-05-23 18:00:00 33.9 5 Noroeste 22 Oeste 0 -- -- 25
2020-05-23 17:00:00 33.2 6 Noroeste 19 Sur 0 -- -- 29
2020-05-23 16:00:00 32.6 12 Sudoeste 22 Sur 0 -- -- 28
2020-05-23 15:00:00 31.9 9 Sudoeste 28 Oeste 0 -- -- 34
2020-05-23 14:00:00 30.4 6 Sudoeste 18 Oeste 0 -- -- 38
2020-05-23 13:00:00 28.5 8 Sudoeste 13 Oeste 0 -- -- 45
2020-05-23 12:00:00 27.2 5 Nordeste 14 Sur 0 -- -- 51
2020-05-23 11:00:00 25 7 Oeste 12 Oeste 0 -- -- 54
2020-05-23 10:00:00 23.7 4 Este 8 Este 0 -- -- 58
2020-05-23 09:00:00 20.7 5 Nordeste 9 Este 0 -- -- 68
2020-05-23 08:00:00 16.7 3 Este 9 Nordeste 0 -- -- 81
2020-05-23 07:00:00 15 4 Nordeste 9 Nordeste 0 -- -- 84
2020-05-23 06:00:00 15.1 0 Calma 5 Nordeste 0 -- -- 79
2020-05-23 05:00:00 16.6 0 Calma 8 Nordeste 0 -- -- 76
2020-05-23 04:00:00 16.9 5 Este 8 Este 0 -- -- 76
2020-05-23 03:00:00 18 6 Nordeste 12 Nordeste 0 -- -- 71
2020-05-23 02:00:00 18.3 2 Sudeste 4 Nordeste 0 -- -- 70
2020-05-23 01:00:00 19.5 3 Este 8 Nordeste 0 -- -- 67
2020-05-23 00:00:00 21.2 3 Nordeste 6 Nordeste 0 -- -- 62
2020-05-22 23:00:00 23.4 6 Nordeste 9 Nordeste 0 -- -- 55
2020-05-22 22:00:00 26.7 2 Sur 5 Oeste 0 -- -- 47
2020-05-22 21:00:00 30.9 4 Noroeste 13 Noroeste 0 -- -- 33
2020-05-22 20:00:00 33 6 Oeste 13 Sur 0 -- -- 29
2020-05-22 19:00:00 33.7 4 Oeste 18 Sudoeste 0 -- -- 27
2020-05-22 18:00:00 33.5 9 Sur 24 Sudoeste 0 -- -- 29
2020-05-22 17:00:00 33 10 Sudoeste 24 Sur 0 -- -- 29
2020-05-22 16:00:00 32.6 14 Sur 28 Sudoeste 0 -- -- 31
2020-05-22 15:00:00 31.8 13 Sur 27 Sur 0 -- -- 32
2020-05-22 14:00:00 30.3 10 Sudoeste 23 Sur 0 -- -- 36
2020-05-22 13:00:00 28.5 8 Oeste 17 Sudoeste 0 -- -- 39
2020-05-22 12:00:00 25.8 6 Sudoeste 13 Sudoeste 0 -- -- 47
2020-05-22 11:00:00 23.3 4 Sudoeste 9 Oeste 0 -- -- 55
2020-05-22 10:00:00 21.3 3 Oeste 6 Oeste 0 -- -- 59
2020-05-22 09:00:00 19.1 0 Calma 6 Nordeste 0 -- -- 67
2020-05-22 08:00:00 15.3 4 Norte 8 Nordeste 0 -- -- 77
2020-05-22 07:00:00 13.7 4 Nordeste 8 Este 0 -- -- 82
2020-05-22 06:00:00 13.5 2 Nordeste 5 Nordeste 0 -- -- 79
2020-05-22 05:00:00 14 0 Calma 6 Nordeste 0 -- -- 77
2020-05-22 04:00:00 15.1 2 Nordeste 4 Norte 0 -- -- 76
2020-05-22 03:00:00 15.9 0 Calma 3 Norte 0 -- -- 73
2020-05-22 02:00:00 17.2 0 Calma 5 Este 0 -- -- 70
2020-05-22 01:00:00 18.7 0 Calma 3 Norte 0 -- -- 64
2020-05-22 00:00:00 20.3 0 Calma 6 Sur 0 -- -- 59
2020-05-21 23:00:00 22.3 2 Sudeste 5 Sur 0 -- -- 50
2020-05-21 22:00:00 24.3 4 Sudeste 11 Oeste 0 -- -- 44
2020-05-21 21:00:00 28.2 9 Oeste 13 Oeste 0 -- -- 35
2020-05-21 20:00:00 31.8 7 Oeste 17 Oeste 0 -- -- 24
2020-05-21 19:00:00 32.2 11 Sudoeste 21 Sudoeste 0 -- -- 20
2020-05-21 18:00:00 32.6 5 Sudoeste 24 Oeste 0 -- -- 21
2020-05-21 17:00:00 32 12 Sudoeste 23 Sudoeste 0 -- -- 21
2020-05-21 16:00:00 31.3 5 Sudeste 18 Sudoeste 0 -- -- 24
2020-05-21 15:00:00 30.4 6 Sudoeste 15 Oeste 0 -- -- 23
2020-05-21 14:00:00 28.9 5 Sur 13 Sudoeste 0 -- -- 30
2020-05-21 13:00:00 27 3 Sur 14 Sur 0 -- -- 35
2020-05-21 12:00:00 24.5 0 Calma 10 Sudoeste 0 -- -- 42
2020-05-21 11:00:00 22.4 4 Sudoeste 9 Sudeste 0 -- -- 48
2020-05-21 10:00:00 20.1 3 Nordeste 8 Este 0 -- -- 56
2020-05-21 09:00:00 16.5 3 Este 5 Nordeste 0 -- -- 68
2020-05-21 08:00:00 12.5 2 Nordeste 10 Este 0 -- -- 76
2020-05-21 07:00:00 12 3 Nordeste 11 Este 0 -- -- 74
2020-05-21 06:00:00 12.2 7 Nordeste 12 Nordeste 0 -- -- 74
2020-05-21 05:00:00 12.3 4 Nordeste 7 Este 0 -- -- 75
2020-05-21 04:00:00 12.8 0 Calma 10 Sudoeste 0 -- -- 72
2020-05-21 03:00:00 14.3 8 Nordeste 11 Nordeste 0 -- -- 65
2020-05-21 02:00:00 14.2 6 Nordeste 12 Este 0 -- -- 67
2020-05-21 01:00:00 15.1 4 Este 6 Este 0 -- -- 66
2020-05-21 00:00:00 17.5 3 Nordeste 10 Nordeste 0 -- -- 57
2020-05-20 23:00:00 19.5 0 Calma 4 Sudeste 0 -- -- 51
2020-05-20 22:00:00 22.4 2 Sur 12 Oeste 0 -- -- 41
2020-05-20 21:00:00 27.8 8 Oeste 19 Oeste 0 -- -- 28
2020-05-20 20:00:00 30.4 10 Oeste 24 Oeste 0 -- -- 20
2020-05-20 19:00:00 31.6 15 Oeste 24 Sudoeste 0 -- -- 18
2020-05-20 18:00:00 31.8 11 Sudoeste 19 Oeste 0 -- -- 23
2020-05-20 17:00:00 32.1 7 Noroeste 19 Sudoeste 0 -- -- 20
2020-05-20 16:00:00 31.4 8 Norte 22 Sudoeste 0 -- -- 22
2020-05-20 15:00:00 29.8 6 Sudoeste 17 Sudoeste 0 -- -- 27
2020-05-20 14:00:00 28.7 8 Oeste 16 Sudoeste 0 -- -- 31
2020-05-20 13:00:00 26.9 6 Sur 13 Oeste 0 -- -- 34
2020-05-20 12:00:00 24.9 5 Sur 10 Sudoeste 0 -- -- 47
2020-05-20 11:00:00 21.7 3 Sudoeste 12 Nordeste 0 -- -- 53
2020-05-20 10:00:00 20.1 3 Norte 10 Norte 0 -- -- 56
2020-05-20 09:00:00 17 2 Norte 9 Este 0 -- -- 64
2020-05-20 08:00:00 14.2 6 Nordeste 10 Este 0 -- -- 76
2020-05-20 07:00:00 12.5 4 Nordeste 9 Nordeste 0 -- -- 81
2020-05-20 06:00:00 12.4 5 Nordeste 7 Nordeste 0 -- -- 84
2020-05-20 05:00:00 12.7 0 Calma 4 Este 0 -- -- 83
2020-05-20 04:00:00 14.2 3 Nordeste 10 Nordeste 0 -- -- 76
2020-05-20 03:00:00 15.4 3 Nordeste 12 Nordeste 0 -- -- 72
2020-05-20 02:00:00 16.1 6 Nordeste 12 Nordeste 0 -- -- 72
2020-05-20 01:00:00 16.5 5 Nordeste 9 Nordeste 0 -- -- 71
2020-05-20 00:00:00 17.7 4 Este 8 Norte 0 -- -- 67
2020-05-19 23:00:00 19.8 0 Calma 7 Nordeste 0 -- -- 61
2020-05-19 22:00:00 22.5 6 Nordeste 11 Nordeste 0 -- -- 50
2020-05-19 21:00:00 26.1 2 Nordeste 5 Nordeste 0 -- -- 42
2020-05-19 20:00:00 28.9 2 Nordeste 14 Norte 0 -- -- 31
2020-05-19 19:00:00 30.9 6 Norte 15 Noroeste 0 -- -- 28
2020-05-19 18:00:00 29.8 4 Nordeste 19 Noroeste 0 -- -- 28
2020-05-19 17:00:00 29.6 6 Nordeste 17 Norte 0 -- -- 32
2020-05-19 16:00:00 28.8 7 Noroeste 18 Noroeste 0 -- -- 28
2020-05-19 15:00:00 27.4 4 Este 21 Nordeste 0 -- -- 31
2020-05-19 14:00:00 26.8 6 Norte 23 Noroeste 0 -- -- 33
2020-05-19 13:00:00 25 3 Noroeste 13 Norte 0 -- -- 36
2020-05-19 12:00:00 23.3 6 Nordeste 12 Norte 0 -- -- 42
2020-05-19 11:00:00 20.5 4 Noroeste 10 Norte 0 -- -- 49
2020-05-19 10:00:00 18.3 4 Nordeste 11 Norte 0 -- -- 54
2020-05-19 09:00:00 16.4 2 Sudeste 6 Este 0 -- -- 60
2020-05-19 08:00:00 12.9 4 Nordeste 11 Nordeste 0 -- -- 76
2020-05-19 07:00:00 11.3 5 Nordeste 10 Nordeste 0 -- -- 81
2020-05-19 06:00:00 11.3 3 Norte 6 Norte 0 -- -- 80
2020-05-19 05:00:00 11.9 3 Norte 6 Noroeste 0 -- -- 79
2020-05-19 04:00:00 13.3 0 Calma 9 Norte 0 -- -- 74
2020-05-19 03:00:00 15.5 6 Nordeste 11 Nordeste 0 -- -- 65
2020-05-19 02:00:00 16.2 5 Sudeste 15 Nordeste 0 -- -- 63
2020-05-19 01:00:00 19.3 10 Nordeste 36 Norte 0 -- -- 52
2020-05-19 00:00:00 20.3 17 Norte 28 Norte 0 -- -- 46
2020-05-18 23:00:00 19.2 8 Nordeste 17 Nordeste 0 -- -- 48
2020-05-18 22:00:00 21.6 6 Nordeste 18 Nordeste 0 -- -- 44
2020-05-18 21:00:00 25.7 10 Norte 16 Norte 0 -- -- 36
2020-05-18 20:00:00 29.1 3 Sur 8 Sudoeste 0 -- -- 31
2020-05-18 19:00:00 29.1 3 Sur 20 Oeste 0 -- -- 30
2020-05-18 18:00:00 28.2 9 Sudoeste 22 Oeste 0 -- -- 30
2020-05-18 17:00:00 27.5 4 Este 13 Sudoeste 0 -- -- 28
2020-05-18 16:00:00 26.4 6 Sudoeste 16 Sudoeste 0 -- -- 28
2020-05-18 15:00:00 25.5 7 Nordeste 16 Nordeste 0 -- -- 30
2020-05-18 14:00:00 24.2 4 Sudoeste 12 Este 0 -- -- 32
2020-05-18 13:00:00 23.1 5 Sudeste 12 Sudeste 0 -- -- 44
2020-05-18 12:00:00 20.2 5 Sudoeste 9 Sur 0 -- -- 53
2020-05-18 11:00:00 18.5 3 Sudoeste 11 Nordeste 0 -- -- 61
2020-05-18 10:00:00 16.3 5 Nordeste 12 Este 0 -- -- 67
2020-05-18 09:00:00 13.3 2 Noroeste 6 Este 0 -- -- 75
2020-05-18 08:00:00 11 4 Este 8 Este 0 -- -- 85
2020-05-18 07:00:00 9.1 6 Este 9 Nordeste 0 -- -- 88
2020-05-18 06:00:00 9.6 4 Este 7 Nordeste 0 -- -- 87
2020-05-18 05:00:00 9.9 0 Calma 8 Nordeste 0 -- -- 85
2020-05-18 04:00:00 10.6 3 Norte 7 Nordeste 0 -- -- 85
2020-05-18 03:00:00 11.9 5 Este 10 Este 0 -- -- 80
2020-05-18 02:00:00 12.3 4 Nordeste 7 Nordeste 0 -- -- 82
2020-05-18 01:00:00 13.1 2 Oeste 7 Este 0 -- -- 81
2020-05-18 00:00:00 14.3 6 Nordeste 16 Nordeste 0 -- -- 77
2020-05-17 23:00:00 16.3 0 Calma 4 Sudeste 0 -- -- 73
2020-05-17 22:00:00 18.7 3 Sur 7 Oeste 0 -- -- 62
2020-05-17 21:00:00 22 5 Oeste 8 Este 0 -- -- 53
2020-05-17 20:00:00 24.1 5 Este 11 Noroeste 0 -- -- 38
2020-05-17 19:00:00 24.3 4 Noroeste 13 Noroeste 0 -- -- 38
2020-05-17 18:00:00 23.1 9 Sudoeste 19 Nordeste 0 -- -- 42
2020-05-17 17:00:00 22.8 7 Nordeste 18 Noroeste 0 -- -- 42
2020-05-17 16:00:00 21.9 8 Este 22 Sudoeste 0 -- -- 45
2020-05-17 15:00:00 20.8 5 Este 19 Norte 0 -- -- 47
2020-05-17 14:00:00 20.2 9 Norte 20 Norte 0 -- -- 53
2020-05-17 13:00:00 19.2 11 Norte 21 Nordeste 0 -- -- 55
2020-05-17 12:00:00 17.8 12 Nordeste 23 Noroeste 0 -- -- 54
2020-05-17 11:00:00 16 12 Norte 26 Nordeste 0 -- -- 59
2020-05-17 10:00:00 14.1 15 Norte 30 Norte 0 -- -- 65
2020-05-17 09:00:00 12.7 6 Norte 14 Norte 0 -- -- 73
2020-05-17 08:00:00 10.5 6 Nordeste 14 Nordeste 0 -- -- 76
2020-05-17 07:00:00 8.8 3 Nordeste 7 Norte 0 -- -- 83
2020-05-17 06:00:00 9.7 0 Calma 17 Nordeste 0 -- -- 81
2020-05-17 05:00:00 10.9 8 Nordeste 19 Norte 0 -- -- 76
2020-05-17 04:00:00 11.6 11 Norte 26 Norte 0 -- -- 72
2020-05-17 03:00:00 12.3 14 Norte 23 Norte 0.2 -- -- 70
2020-05-17 02:00:00 13.1 5 Norte 17 Norte 0 -- -- 79
2020-05-17 01:00:00 13.1 5 Nordeste 23 Norte 0 -- -- 82
2020-05-17 00:00:00 14.3 15 Nordeste 27 Norte 0 -- -- 74
2020-05-16 23:00:00 15.2 10 Norte 22 Norte 0 -- -- 72
2020-05-16 22:00:00 15.7 3 Nordeste 6 Este 0 -- -- 77
2020-05-16 21:00:00 16.8 0 Calma 18 Norte 0 -- -- 77
2020-05-16 20:00:00 17.9 8 Norte 25 Norte 0 -- -- 64
2020-05-16 19:00:00 18.1 13 Norte 27 Norte 0 -- -- 65
2020-05-16 18:00:00 18.3 12 Norte 24 Norte 0 -- -- 62
2020-05-16 17:00:00 19.9 5 Sudeste 16 Sudeste 0 -- -- 58
2020-05-16 16:00:00 19.3 9 Sur 24 Nordeste 0 -- -- 63
2020-05-16 15:00:00 20.1 13 Nordeste 26 Norte 0 -- -- 57
2020-05-16 14:00:00 18.6 15 Norte 26 Norte 0 -- -- 65
2020-05-16 13:00:00 19.6 13 Norte 24 Nordeste 0 -- -- 63
2020-05-16 12:00:00 18.2 14 Norte 26 Norte 0 -- -- 70
2020-05-16 11:00:00 15.3 13 Norte 27 Norte 0 -- -- 74
2020-05-16 10:00:00 13.9 13 Nordeste 26 Norte 0 -- -- 79
2020-05-16 09:00:00 12 10 Nordeste 25 Norte 0 -- -- 85
2020-05-16 08:00:00 11.6 15 Norte 26 Norte 0 -- -- 86
2020-05-16 07:00:00 11.5 12 Nordeste 21 Nordeste 0 -- -- 87
2020-05-16 06:00:00 11.6 10 Norte 20 Nordeste 0 -- -- 89
2020-05-16 05:00:00 11.9 9 Nordeste 19 Nordeste 0 -- -- 90
2020-05-16 04:00:00 12 6 Nordeste 21 Norte 0 -- -- 90
2020-05-16 03:00:00 12.1 8 Nordeste 16 Nordeste 0.2 -- -- 90
2020-05-16 02:00:00 12.3 9 Nordeste 18 Nordeste 0 -- -- 90
2020-05-16 01:00:00 12.3 4 Nordeste 15 Nordeste 0 -- -- 91
2020-05-16 00:00:00 12.3 5 Norte 12 Norte 0 -- -- 91
2020-05-15 23:00:00 12.4 4 Nordeste 13 Nordeste 0 -- -- 92
2020-05-15 22:00:00 12.8 6 Nordeste 10 Nordeste 0.2 -- -- 91
2020-05-15 21:00:00 13.4 3 Norte 17 Este 2.8 -- -- 89
2020-05-15 20:00:00 16 7 Norte 13 Norte 0 -- -- 80
2020-05-15 19:00:00 15 5 Nordeste 11 Norte 0 -- -- 85
2020-05-15 18:00:00 12.5 3 Este 21 Este 3 -- -- 90
2020-05-15 17:00:00 13.1 13 Este 28 Este 0.8 -- -- 88
2020-05-15 16:00:00 14.1 7 Oeste 18 Sudoeste 0.8 -- -- 85
2020-05-15 15:00:00 13.7 12 Sudoeste 24 Sur 0.8 -- -- 84
2020-05-15 14:00:00 18.5 6 Nordeste 23 Nordeste 0 -- -- 55
2020-05-15 13:00:00 18.9 5 Norte 16 Noroeste 0 -- -- 58
2020-05-15 12:00:00 18.1 8 Nordeste 17 Nordeste 0 -- -- 67
2020-05-15 11:00:00 16.1 7 Este 17 Nordeste 0 -- -- 71
2020-05-15 10:00:00 13.8 2 Oeste 9 Sudoeste 0 -- -- 84
2020-05-15 09:00:00 12.4 7 Sur 10 Sudoeste 0 -- -- 93
2020-05-15 08:00:00 10.8 0 Calma 2 Oeste 0 -- -- 94
2020-05-15 07:00:00 10.3 2 Oeste 6 Sudoeste 0 -- -- 93
2020-05-15 06:00:00 10 5 Sudoeste 6 Sudoeste 0 -- -- 92
2020-05-15 05:00:00 10.5 0 Calma 2 Sudeste 0 -- -- 90
2020-05-15 04:00:00 11.3 0 Calma 5 Sur 0 -- -- 89
2020-05-15 03:00:00 12.1 4 Sur 6 Sur 0 -- -- 88
2020-05-15 02:00:00 12.4 3 Sur 5 Sudoeste 0 -- -- 88
2020-05-15 01:00:00 12.6 3 Sudoeste 9 Oeste 0 -- -- 87
2020-05-15 00:00:00 13.1 6 Oeste 12 Oeste 0 -- -- 83
2020-05-14 23:00:00 13.3 0 Calma 5 Sudeste 0 -- -- 83
2020-05-14 22:00:00 13.7 2 Sudeste 6 Sudeste 0 -- -- 81
2020-05-14 21:00:00 14.4 4 Sudeste 8 Sur 0 -- -- 78
2020-05-14 20:00:00 14.8 4 Sur 9 Sur 0 -- -- 70
2020-05-14 19:00:00 15.3 5 Sur 13 Sur 0 -- -- 67
2020-05-14 18:00:00 15.5 6 Sur 13 Sur 0 -- -- 66
2020-05-14 17:00:00 15.3 9 Sudoeste 20 Sudoeste 0 -- -- 63
2020-05-14 16:00:00 15.1 13 Oeste 23 Sudoeste 0.2 -- -- 69
2020-05-14 15:00:00 14.1 9 Oeste 19 Noroeste 0 -- -- 73
2020-05-14 14:00:00 12.7 5 Sudoeste 9 Sudoeste 0 -- -- 84
2020-05-14 13:00:00 11.8 5 Sur 9 Sudoeste 0.2 -- -- 90
2020-05-14 12:00:00 11.3 3 Sudeste 8 Nordeste 0.4 -- -- 91
2020-05-14 11:00:00 10.7 3 Nordeste 8 Sur 1 -- -- 91
2020-05-14 10:00:00 10.5 5 Sudoeste 14 Sudoeste 0.4 -- -- 91
2020-05-14 09:00:00 10.2 12 Sudoeste 26 Sudoeste 0.6 -- -- 92
2020-05-14 08:00:00 10.4 15 Sudoeste 26 Sudoeste 2.2 -- -- 93
2020-05-14 07:00:00 10.9 10 Sudoeste 35 Sudoeste 3.8 -- -- 92
2020-05-14 06:00:00 11.9 12 Sudoeste 17 Sudoeste 0 -- -- 89
2020-05-14 05:00:00 11.4 3 Sur 17 Sur 0 -- -- 90
2020-05-14 04:00:00 11.2 0 Calma 7 Oeste 0 -- -- 87
2020-05-14 03:00:00 12 0 Calma 10 Este 0 -- -- 84
2020-05-14 02:00:00 12.2 5 Nordeste 10 Nordeste 0 -- -- 82
2020-05-14 01:00:00 12.8 3 Nordeste 12 Nordeste 0 -- -- 81
2020-05-14 00:00:00 13.7 5 Nordeste 9 Nordeste 0 -- -- 79
2020-05-13 23:00:00 14.5 4 Nordeste 6 Nordeste 0 -- -- 77
2020-05-13 22:00:00 15.6 5 Sudeste 16 Sudeste 0 -- -- 71
2020-05-13 21:00:00 17.8 10 Sudeste 18 Sur 0 -- -- 60
2020-05-13 20:00:00 18 8 Sudeste 17 Sudeste 0 -- -- 61
2020-05-13 19:00:00 18.8 12 Sudeste 21 Sudeste 0 -- -- 57
2020-05-13 18:00:00 20.1 9 Sudeste 21 Sudoeste 0 -- -- 54
2020-05-13 17:00:00 18.3 11 Sudoeste 19 Sudoeste 0 -- -- 58
2020-05-13 16:00:00 17.5 13 Sudoeste 21 Sudoeste 0 -- -- 59
2020-05-13 15:00:00 18.2 12 Sur 23 Sudoeste 0 -- -- 60
2020-05-13 14:00:00 17 12 Sudoeste 24 Sudoeste 0 -- -- 70
2020-05-13 13:00:00 16.1 14 Sudoeste 24 Sudoeste 0 -- -- 67
2020-05-13 12:00:00 14.7 15 Sudoeste 26 Sudoeste 0 -- -- 77
2020-05-13 11:00:00 13.7 16 Sudoeste 24 Sudoeste 0 -- -- 84
2020-05-13 10:00:00 12.6 13 Sudoeste 19 Sudoeste 0.2 -- -- 91
2020-05-13 09:00:00 11.5 10 Sudoeste 17 Sur 0 -- -- 94
2020-05-13 08:00:00 10.6 9 Sur 15 Sudoeste 0 -- -- 94
2020-05-13 07:00:00 10.2 10 Sudoeste 17 Sudoeste 0 -- -- 94
2020-05-13 06:00:00 10.5 8 Sudoeste 15 Sur 0 -- -- 94
2020-05-13 05:00:00 10.6 8 Sudoeste 13 Sudoeste 0 -- -- 94
2020-05-13 04:00:00 10.4 9 Sudoeste 16 Sur 0 -- -- 94
2020-05-13 03:00:00 10.5 10 Sudoeste 18 Sudoeste 0 -- -- 94
2020-05-13 02:00:00 10.9 9 Sudoeste 15 Sudoeste 0 -- -- 93
2020-05-13 01:00:00 10.7 11 Sudoeste 26 Sudoeste 0 -- -- 93
2020-05-13 00:00:00 10.8 12 Sudoeste 22 Sur 0 -- -- 93
2020-05-12 23:00:00 10.9 9 Sudoeste 32 Sudoeste 0.8 -- -- 92
2020-05-12 22:00:00 11.3 6 Sur 14 Sudeste 1 -- -- 90
2020-05-12 21:00:00 12 7 Sudeste 11 Sudeste 0.6 -- -- 90
2020-05-12 20:00:00 12.1 4 Sudeste 23 Sudeste 2.2 -- -- 89
2020-05-12 19:00:00 13.3 6 Sudeste 10 Sur 1.2 -- -- 87
2020-05-12 18:00:00 14.2 0 Calma 10 Sudoeste 0.4 -- -- 83
2020-05-12 17:00:00 14.1 8 Sudoeste 11 Sudoeste 0.2 -- -- 84
2020-05-12 16:00:00 14.1 6 Sur 21 Sur 0.2 -- -- 85
2020-05-12 15:00:00 14 11 Sur 27 Sudeste 0 -- -- 87
2020-05-12 14:00:00 14.8 17 Sur 29 Sur 0 -- -- 78
2020-05-12 13:00:00 16.4 8 Sur 14 Sur 0 -- -- 71
2020-05-12 12:00:00 15.5 6 Sudeste 17 Sudeste 0 -- -- 77
2020-05-12 11:00:00 15.8 6 Este 10 Este 0 -- -- 75
2020-05-12 10:00:00 15 3 Nordeste 10 Nordeste 0 -- -- 79
2020-05-12 09:00:00 13.4 4 Nordeste 9 Este 0 -- -- 85
2020-05-12 08:00:00 12.3 5 Nordeste 11 Nordeste 0 -- -- 88
2020-05-12 07:00:00 12.1 0 Calma 4 Sudoeste 0 -- -- 87
2020-05-12 06:00:00 12.4 5 Sudoeste 8 Sur 0 -- -- 88
2020-05-12 05:00:00 12.4 4 Este 6 Este 0 -- -- 89
2020-05-12 04:00:00 11.3 0 Calma 8 Sur 0 -- -- 90
2020-05-12 03:00:00 10.3 2 Norte 4 Oeste 0 -- -- 88
2020-05-12 02:00:00 11.4 2 Oeste 8 Sudoeste 0 -- -- 86
2020-05-12 01:00:00 11.6 5 Sudoeste 8 Sudoeste 0 -- -- 83
2020-05-12 00:00:00 13 5 Sur 10 Sur 0 -- -- 79
2020-05-11 23:00:00 14.3 7 Sur 19 Sudoeste 0 -- -- 74
2020-05-11 22:00:00 15.7 15 Sudoeste 28 Sudoeste 0 -- -- 68
2020-05-11 21:00:00 17.2 13 Sudoeste 27 Sudoeste 0 -- -- 64
2020-05-11 20:00:00 17.3 18 Sur 35 Sudoeste 0 -- -- 64
2020-05-11 19:00:00 19.2 18 Sudoeste 34 Oeste 0 -- -- 54
2020-05-11 18:00:00 20 22 Sudoeste 36 Sudoeste 0 -- -- 54
2020-05-11 17:00:00 18.8 16 Sur 45 Sudoeste 0 -- -- 60
2020-05-11 16:00:00 18.9 18 Sudoeste 33 Sudoeste 0 -- -- 53
2020-05-11 15:00:00 20.4 17 Sudoeste 33 Sudoeste 0 -- -- 50
2020-05-11 14:00:00 19.3 21 Sudoeste 34 Sudoeste 0 -- -- 52
2020-05-11 13:00:00 18.7 18 Sudoeste 35 Sudoeste 0 -- -- 56
2020-05-11 12:00:00 17.6 22 Sudoeste 33 Sudoeste 0 -- -- 58
2020-05-11 11:00:00 14.4 21 Sudoeste 32 Oeste 0 -- -- 74
2020-05-11 10:00:00 14.2 19 Sudoeste 30 Sudoeste 0 -- -- 73
2020-05-11 09:00:00 13.4 13 Sudoeste 21 Sur 0 -- -- 80
2020-05-11 08:00:00 12.1 8 Sur 17 Sudoeste 0 -- -- 86
2020-05-11 07:00:00 11.5 6 Sur 24 Sudoeste 0 -- -- 87
2020-05-11 06:00:00 11.6 10 Sudoeste 22 Sudoeste 0 -- -- 87
2020-05-11 05:00:00 11.3 8 Sudoeste 21 Sur 0 -- -- 85
2020-05-11 04:00:00 11.7 11 Sudoeste 18 Sudoeste 0 -- -- 81
2020-05-11 03:00:00 12.7 12 Sudoeste 30 Oeste 0 -- -- 75
2020-05-11 02:00:00 13.5 14 Oeste 27 Sudoeste 0 -- -- 70
2020-05-11 01:00:00 14.8 23 Sudoeste 36 Oeste 0 -- -- 63
2020-05-11 00:00:00 14.9 21 Oeste 32 Sudoeste 0 -- -- 65
2020-05-10 23:00:00 15 17 Oeste 31 Oeste 0 -- -- 63
2020-05-10 22:00:00 14.8 12 Oeste 34 Sudoeste 0 -- -- 63
2020-05-10 21:00:00 16.3 22 Oeste 37 Oeste 0 -- -- 55
2020-05-10 20:00:00 18.3 26 Sudoeste 36 Sudoeste 0 -- -- 50
2020-05-10 19:00:00 19.4 27 Oeste 40 Sudoeste 0 -- -- 47
2020-05-10 18:00:00 19.7 25 Sudoeste 45 Sudoeste 0 -- -- 45
2020-05-10 17:00:00 19 30 Sudoeste 45 Oeste 0 -- -- 48
2020-05-10 16:00:00 19.7 29 Sudoeste 47 Sudoeste 0.2 -- -- 48
2020-05-10 15:00:00 19.9 26 Sudoeste 40 Sudoeste 0 -- -- 45
2020-05-10 14:00:00 18.9 23 Sudoeste 41 Oeste 0 -- -- 46
2020-05-10 13:00:00 17.7 25 Oeste 41 Oeste 0 -- -- 49
2020-05-10 12:00:00 16.3 22 Oeste 41 Sudoeste 0 -- -- 56
2020-05-10 11:00:00 15.3 22 Sudoeste 34 Sudoeste 0 -- -- 66
2020-05-10 10:00:00 13.2 17 Oeste 28 Sudoeste 0 -- -- 76
2020-05-10 09:00:00 11.6 13 Sudoeste 25 Sudoeste 0 -- -- 86
2020-05-10 08:00:00 10.3 13 Sudoeste 24 Sudoeste 0.2 -- -- 90
2020-05-10 07:00:00 10.8 15 Sudoeste 23 Sudoeste 0 -- -- 90
2020-05-10 06:00:00 11.7 15 Sudoeste 21 Sudoeste 0 -- -- 87
2020-05-10 05:00:00 12.8 6 Sur 14 Sudoeste 0.2 -- -- 88
2020-05-10 04:00:00 13 7 Sudoeste 17 Oeste 0 -- -- 82
2020-05-10 03:00:00 12.9 5 Sudoeste 18 Sudoeste 0 -- -- 78
2020-05-10 02:00:00 13.7 11 Sudoeste 17 Sudoeste 0 -- -- 73
2020-05-10 01:00:00 14.1 10 Sudoeste 21 Sudoeste 0 -- -- 72
2020-05-10 00:00:00 14.7 14 Sudoeste 30 Oeste 0 -- -- 68
2020-05-09 23:00:00 16.8 19 Sudoeste 33 Sudoeste 0 -- -- 62
2020-05-09 22:00:00 17.8 6 Oeste 28 Oeste 0 -- -- 56
2020-05-09 21:00:00 20.4 14 Oeste 29 Sudoeste 0 -- -- 46
2020-05-09 20:00:00 22.2 9 Oeste 24 Sudoeste 0 -- -- 43
2020-05-09 19:00:00 24.4 13 Sudoeste 27 Sudoeste 0 -- -- 36
2020-05-09 18:00:00 24.4 16 Sudoeste 28 Sudoeste 0 -- -- 34
2020-05-09 17:00:00 24.7 13 Sudoeste 27 Sudoeste 0 -- -- 34
2020-05-09 16:00:00 24 18 Sudoeste 27 Sudoeste 0 -- -- 32
2020-05-09 15:00:00 23.1 13 Sudoeste 25 Sudoeste 0 -- -- 41
2020-05-09 14:00:00 22.3 13 Sudoeste 23 Oeste 0 -- -- 45
2020-05-09 13:00:00 20.9 13 Sudoeste 27 Sudoeste 0 -- -- 49
2020-05-09 12:00:00 20 13 Sur 22 Sudoeste 0 -- -- 60
2020-05-09 11:00:00 19.6 12 Sur 21 Sur 0 -- -- 64
2020-05-09 10:00:00 18.1 12 Sudoeste 19 Sudoeste 0 -- -- 69
2020-05-09 09:00:00 16.6 6 Oeste 12 Sudoeste 0 -- -- 75
2020-05-09 08:00:00 14.1 3 Sur 4 Sudoeste 0 -- -- 81
2020-05-09 07:00:00 13.6 3 Sur 13 Sudoeste 0 -- -- 80
2020-05-09 06:00:00 14.3 8 Sur 15 Sur 0 -- -- 80
2020-05-09 05:00:00 15.2 13 Sudoeste 17 Sudoeste 0 -- -- 78
2020-05-09 04:00:00 16.5 8 Sur 18 Sur 0 -- -- 72
2020-05-09 03:00:00 17.7 6 Sudoeste 20 Sur 0 -- -- 68
2020-05-09 02:00:00 18.6 3 Oeste 14 Sudeste 0 -- -- 65
2020-05-09 01:00:00 18.4 0 Calma 9 Oeste 0 -- -- 62
2020-05-09 00:00:00 19.3 3 Sur 19 Sudeste 0 -- -- 57
2020-05-08 23:00:00 20.5 4 Sudeste 7 Sudeste 0 -- -- 53
2020-05-08 22:00:00 21.5 5 Sudoeste 12 Sudoeste 0 -- -- 52
2020-05-08 21:00:00 25.5 6 Sur 21 Sur 0 -- -- 42
2020-05-08 20:00:00 27.7 8 Sudoeste 26 Sudeste 0 -- -- 40
2020-05-08 19:00:00 29.3 5 Oeste 19 Sudoeste 0 -- -- 34
2020-05-08 18:00:00 29.5 9 Sudoeste 14 Sudoeste 0 -- -- 35
2020-05-08 17:00:00 29 4 Oeste 19 Sudoeste 0 -- -- 35
2020-05-08 16:00:00 28 7 Oeste 23 Sudoeste 0 -- -- 37
2020-05-08 15:00:00 27.4 6 Sudeste 18 Sudeste 0 -- -- 40
2020-05-08 14:00:00 26.1 6 Sudeste 21 Este 0 -- -- 42
2020-05-08 13:00:00 24.8 7 Este 18 Este 0 -- -- 42
2020-05-08 12:00:00 23.3 5 Norte 14 Nordeste 0 -- -- 47
2020-05-08 11:00:00 21.4 12 Este 20 Norte 0 -- -- 47
2020-05-08 10:00:00 19.7 6 Norte 17 Nordeste 0 -- -- 55
2020-05-08 09:00:00 17.3 6 Norte 12 Nordeste 0 -- -- 59
2020-05-08 08:00:00 14.1 8 Este 13 Este 0 -- -- 72
2020-05-08 07:00:00 13 4 Noroeste 11 Nordeste 0 -- -- 73
2020-05-08 06:00:00 14.3 8 Este 18 Este 0 -- -- 68
2020-05-08 05:00:00 15.9 3 Nordeste 15 Nordeste 0 -- -- 61
2020-05-08 04:00:00 17.1 6 Este 15 Este 0 -- -- 57
2020-05-08 03:00:00 17.7 5 Sudeste 20 Sudeste 0 -- -- 57
2020-05-08 02:00:00 18.1 3 Norte 22 Este 0 -- -- 57
2020-05-08 01:00:00 19.1 11 Este 38 Sudeste 0 -- -- 54
2020-05-08 00:00:00 20 21 Este 39 Este 0 -- -- 50
2020-05-07 23:00:00 20.9 25 Este 45 Este 0 -- -- 47
2020-05-07 22:00:00 21.8 23 Sudeste 40 Sudeste 0 -- -- 49
2020-05-07 21:00:00 23.6 17 Este 34 Sudeste 0 -- -- 48
2020-05-07 20:00:00 26 12 Sudeste 34 Sudeste 0 -- -- 38
2020-05-07 19:00:00 27.2 15 Sudeste 31 Sudeste 0 -- -- 39
2020-05-07 18:00:00 27.2 24 Sudeste 36 Sudeste 0 -- -- 37
2020-05-07 17:00:00 26.4 14 Sudeste 33 Sur 0 -- -- 40
2020-05-07 16:00:00 28.2 18 Sudeste 33 Sudeste 0 -- -- 39
2020-05-07 15:00:00 27.1 21 Sudeste 36 Este 0 -- -- 39
2020-05-07 14:00:00 26 22 Sudeste 41 Sudeste 0 -- -- 40
2020-05-07 13:00:00 26.7 25 Sudeste 39 Sudeste 0 -- -- 39
2020-05-07 12:00:00 25.6 17 Sudeste 25 Sudeste 0 -- -- 42
2020-05-07 11:00:00 21.9 6 Nordeste 12 Este 0 -- -- 52
2020-05-07 10:00:00 19.1 3 Norte 9 Nordeste 0 -- -- 58
2020-05-07 09:00:00 14.7 4 Sudoeste 13 Norte 0 -- -- 71
2020-05-07 08:00:00 12 2 Nordeste 5 Sur 0 -- -- 73
2020-05-07 07:00:00 10.4 0 Calma 4 Sudoeste 0 -- -- 77
2020-05-07 06:00:00 11.1 3 Este 6 Este 0 -- -- 70
2020-05-07 05:00:00 10.6 0 Calma 6 Este 0 -- -- 73
2020-05-07 04:00:00 11.2 3 Sudeste 10 Norte 0 -- -- 72
2020-05-07 03:00:00 11.7 2 Nordeste 7 Nordeste 0 -- -- 69
2020-05-07 02:00:00 12.5 6 Este 10 Nordeste 0 -- -- 65
2020-05-07 01:00:00 13.3 6 Nordeste 10 Nordeste 0 -- -- 63
2020-05-07 00:00:00 14.5 3 Nordeste 8 Este 0 -- -- 59
2020-05-06 23:00:00 16.4 5 Nordeste 8 Nordeste 0 -- -- 53
2020-05-06 22:00:00 19.1 4 Nordeste 6 Nordeste 0 -- -- 50
2020-05-06 21:00:00 25.5 2 Sudoeste -- -- 0 -- -- 34
2020-05-06 20:00:00 27.6 0 Calma 6 Sur 0 -- -- 28
2020-05-06 19:00:00 26.7 9 Sudoeste 15 Sudoeste 0 -- -- 31
2020-05-06 18:00:00 27.2 7 Sudoeste 16 Sudoeste 0 -- -- 28
2020-05-06 17:00:00 26.7 5 Sur 16 Sudoeste 0 -- -- 26
2020-05-06 16:00:00 25.6 6 Sudoeste 19 Sudoeste 0 -- -- 27
2020-05-06 15:00:00 24.3 8 Sur 17 Sudoeste 0 -- -- 31
2020-05-06 14:00:00 22.7 7 Sur 13 Sudoeste 0 -- -- 34
2020-05-06 13:00:00 21 7 Sudoeste 14 Oeste 0 -- -- 35
2020-05-06 12:00:00 18.9 4 Sur 10 Sur 0 -- -- 49
2020-05-06 11:00:00 15.4 3 Sudoeste 8 Oeste 0 -- -- 54
2020-05-06 10:00:00 12.8 3 Nordeste 7 Este 0 -- -- 64
2020-05-06 09:00:00 10.2 3 Nordeste 5 Nordeste 0 -- -- 70
2020-05-06 08:00:00 7.5 3 Este 8 Nordeste 0 -- -- 79
2020-05-06 07:00:00 7.5 4 Nordeste 8 Nordeste 0 -- -- 76
2020-05-06 06:00:00 7.7 4 Nordeste 6 Nordeste 0 -- -- 76
2020-05-06 05:00:00 8.1 5 Nordeste 7 Nordeste 0 -- -- 78
2020-05-06 04:00:00 8.2 0 Calma 3 Norte 0 -- -- 72
2020-05-06 03:00:00 9 2 Sudeste 6 Sur 0 -- -- 67
2020-05-06 02:00:00 10.3 2 Noroeste 8 Oeste 0 -- -- 65
2020-05-06 01:00:00 11 4 Sudoeste 7 Oeste 0 -- -- 63
2020-05-06 00:00:00 12.8 0 Calma 6 Sudeste 0 -- -- 54
2020-05-05 23:00:00 15 3 Nordeste 13 Sur 0 -- -- 49
2020-05-05 22:00:00 17.7 7 Sur 16 Oeste 0 -- -- 40
2020-05-05 21:00:00 20.6 12 Oeste 21 Oeste 0 -- -- 33
2020-05-05 20:00:00 23.7 17 Oeste 24 Oeste 0 -- -- 30
2020-05-05 19:00:00 25.3 14 Oeste 25 Oeste 0 -- -- 29
2020-05-05 18:00:00 25.9 12 Oeste 28 Sudoeste 0 -- -- 29
2020-05-05 17:00:00 25.1 12 Sudoeste 25 Sudoeste 0 -- -- 33
2020-05-05 16:00:00 23.8 10 Sur 26 Sudoeste 0 -- -- 40
2020-05-05 15:00:00 22.4 12 Sudoeste 23 Sur 0 -- -- 44
2020-05-05 14:00:00 22.5 12 Sur 25 Sur 0 -- -- 45
2020-05-05 13:00:00 21.6 9 Sur 21 Sur 0 -- -- 51
2020-05-05 12:00:00 20.6 13 Sudoeste 22 Sudoeste 0 -- -- 51
2020-05-05 11:00:00 19.4 11 Sudoeste 18 Sudoeste 0 -- -- 59
2020-05-05 10:00:00 16.8 8 Sudoeste 13 Sudoeste 0 -- -- 63
2020-05-05 09:00:00 14.7 7 Sudoeste 14 Sudoeste 0 -- -- 69
2020-05-05 08:00:00 12.7 4 Sudoeste 5 Sudoeste 0 -- -- 82
2020-05-05 07:00:00 11.9 4 Sudoeste 5 Sudoeste 0 -- -- 84
2020-05-05 06:00:00 13 2 Norte 6 Sudoeste 0 -- -- 83
2020-05-05 05:00:00 12.8 0 Calma 9 Sudoeste 0 -- -- 83
2020-05-05 04:00:00 13.4 4 Sudoeste 8 Sudoeste 0 -- -- 78
2020-05-05 03:00:00 14.4 6 Sudoeste 7 Sudoeste 0 -- -- 75
2020-05-05 02:00:00 15.9 3 Sur 15 Sudoeste 0 -- -- 68
2020-05-05 01:00:00 17 9 Sur 14 Sur 0 -- -- 65
2020-05-05 00:00:00 18.4 5 Sur 20 Sudoeste 0 -- -- 62
2020-05-04 23:00:00 20.3 13 Sudoeste 32 Sudoeste 0 -- -- 55
2020-05-04 22:00:00 22.5 18 Sudoeste 32 Sudoeste 0 -- -- 59
2020-05-04 21:00:00 25.2 12 Sudoeste 31 Sur 0 -- -- 47
2020-05-04 20:00:00 27.2 16 Sudoeste 40 Sudoeste 0 -- -- 36
2020-05-04 19:00:00 29.7 28 Sudoeste 46 Sudoeste 0 -- -- 35
2020-05-04 18:00:00 31.1 28 Sudoeste 54 Sudoeste 0 -- -- 30
2020-05-04 17:00:00 31.4 25 Sudoeste 39 Sudoeste 0 -- -- 36
2020-05-04 16:00:00 31.1 3 Sur 12 Oeste 0 -- -- 38
2020-05-04 15:00:00 27.7 8 Noroeste 22 Nordeste 0 -- -- 50
2020-05-04 14:00:00 24.7 4 Nordeste 12 Nordeste 0 -- -- 58
2020-05-04 13:00:00 23.9 4 Nordeste 11 Nordeste 0 -- -- 53
2020-05-04 12:00:00 23.5 5 Nordeste 15 Nordeste 0 -- -- 55
2020-05-04 11:00:00 20.2 7 Nordeste 15 Nordeste 0 -- -- 67
2020-05-04 10:00:00 18.8 4 Este 13 Norte 0 -- -- 68
2020-05-04 09:00:00 16.3 0 Calma 10 Este 0 -- -- 75
2020-05-04 08:00:00 13.1 7 Este 10 Nordeste 0 -- -- 86
2020-05-04 07:00:00 12.3 0 Calma 5 Norte 0 -- -- 85
2020-05-04 06:00:00 12.6 3 Sur 7 Nordeste 0 -- -- 85
2020-05-04 05:00:00 13.5 3 Nordeste 6 Sur 0 -- -- 82
2020-05-04 04:00:00 13.8 4 Sur 5 Sur 0 -- -- 81
2020-05-04 03:00:00 14.6 0 Calma 6 Nordeste 0 -- -- 78
2020-05-04 02:00:00 16.3 3 Nordeste 10 Este 0 -- -- 72
2020-05-04 01:00:00 17.1 4 Nordeste 9 Nordeste 0 -- -- 70
2020-05-04 00:00:00 17.9 5 Nordeste 9 Nordeste 0 -- -- 68
2020-05-03 23:00:00 18.9 5 Nordeste 9 Nordeste 0 -- -- 62
2020-05-03 22:00:00 22.6 6 Este 10 Nordeste 0 -- -- 53
2020-05-03 21:00:00 26.7 4 Nordeste 8 Nordeste 0 -- -- 43
2020-05-03 20:00:00 29.4 4 Norte 9 Norte 0 -- -- 35
2020-05-03 19:00:00 31.4 2 Oeste 10 Sudoeste 0 -- -- 30
2020-05-03 18:00:00 30.6 6 Oeste 15 Oeste 0 -- -- 32
2020-05-03 17:00:00 30.6 6 Noroeste 13 Nordeste 0 -- -- 33
2020-05-03 16:00:00 29 5 Sudoeste 17 Oeste 0 -- -- 37
2020-05-03 15:00:00 27.7 4 Noroeste 13 Sudoeste 0 -- -- 39
2020-05-03 14:00:00 26.5 6 Oeste 13 Sudoeste 0 -- -- 46
2020-05-03 13:00:00 24.9 5 Sudoeste 10 Oeste 0 -- -- 53
2020-05-03 12:00:00 22.3 4 Sudoeste 9 Oeste 0 -- -- 60
2020-05-03 11:00:00 19.5 4 Sudoeste 6 Sudoeste 0 -- -- 67
2020-05-03 10:00:00 17.2 2 Nordeste 6 Nordeste 0 -- -- 73
2020-05-03 09:00:00 13.6 0 Calma 5 Este 0 -- -- 85
2020-05-03 08:00:00 11.1 3 Este 8 Nordeste 0 -- -- 90
2020-05-03 07:00:00 10 3 Nordeste 8 Nordeste 0 -- -- 87
2020-05-03 06:00:00 10.8 5 Nordeste 6 Nordeste 0 -- -- 89
2020-05-03 05:00:00 11.3 4 Nordeste 7 Nordeste 0 -- -- 88
2020-05-03 04:00:00 11.5 0 Calma 3 Este 0 -- -- 84
2020-05-03 03:00:00 12.6 0 Calma 4 Sudeste 0 -- -- 80
2020-05-03 02:00:00 13.8 0 Calma 4 Sudoeste 0 -- -- 79
2020-05-03 01:00:00 14.2 5 Oeste 10 Sudoeste 0 -- -- 75
2020-05-03 00:00:00 16.7 4 Sudoeste 8 Sur 0 -- -- 66
2020-05-02 23:00:00 18.4 4 Sur 17 Sur 0 -- -- 60
2020-05-02 22:00:00 20.3 13 Sudoeste 21 Sur 0 -- -- 53
2020-05-02 21:00:00 22.5 7 Sudoeste 24 Oeste 0 -- -- 47
2020-05-02 20:00:00 25.3 17 Sudoeste 31 Oeste 0 -- -- 38
2020-05-02 19:00:00 26.6 17 Oeste 35 Oeste 0 -- -- 36
2020-05-02 18:00:00 26.7 21 Oeste 36 Sudoeste 0 -- -- 38
2020-05-02 17:00:00 26.9 18 Sudoeste 33 Sudoeste 0 -- -- 40
2020-05-02 16:00:00 26.4 19 Sudoeste 30 Oeste 0 -- -- 44
2020-05-02 15:00:00 25.1 14 Sudoeste 27 Sudoeste 0 -- -- 49
2020-05-02 14:00:00 23.7 12 Sur 25 Sudoeste 0 -- -- 54
2020-05-02 13:00:00 22.3 11 Sudoeste 24 Sudoeste 0 -- -- 56
2020-05-02 12:00:00 20.7 9 Sudoeste 17 Sudoeste 0 -- -- 67
2020-05-02 11:00:00 18.6 5 Sur 12 Sur 0 -- -- 76
2020-05-02 10:00:00 15.9 6 Sudoeste 13 Sudoeste 0 -- -- 83
2020-05-02 09:00:00 13.6 3 Oeste 6 Oeste 0 -- -- 92
2020-05-02 08:00:00 11.3 5 Sudoeste 7 Sudoeste 0 -- -- 94
2020-05-02 07:00:00 11.1 2 Este 5 Sudeste 0 -- -- 93
2020-05-02 06:00:00 11.3 0 Calma 10 Sudoeste 0 -- -- 92
2020-05-02 05:00:00 11.7 6 Sudoeste 9 Sudoeste 0 -- -- 91
2020-05-02 04:00:00 12.1 2 Sur 5 Sudoeste 0 -- -- 90
2020-05-02 03:00:00 12.4 0 Calma 8 Sudoeste 0 -- -- 89
2020-05-02 02:00:00 13.4 4 Oeste 8 Sur 0 -- -- 86
2020-05-02 01:00:00 14.5 3 Sur 12 Sudoeste 0 -- -- 83
2020-05-02 00:00:00 15 8 Sudoeste 14 Sudoeste 0 -- -- 83